METAR Data
IDs: Format: Raw Decoded Include TAF

Data at: 1519 UTC 27 Nov 2021

KUGN 271455Z 18007KT 10SM FEW075 BKN095 OVC120 01/M06 A2986 RMK AO2 SLP125 T00111056 56008